Time;durP1;ratioP1;P1;durP2;ratioP2;P2;SDS_P1;SDS_P2;PMS_P1;PMS_P2;Temp;Humidity;BMP_temperature;BMP_pressure;BME280_temperature;BME280_humidity;BME280_pressure;Samples;Min_cycle;Max_cycle;Signal;HPM_P1;HPM_P2
2021/12/29 00:00:11;;;;;;;19.40;8.67;;;9.50;99.90;;;;;;5078279;28;20546;-87
2021/12/29 00:02:38;;;;;;;23.70;9.20;;;9.40;99.90;;;;;;5048573;28;20218;-87
2021/12/29 00:05:06;;;;;;;28.23;9.53;;;9.40;99.90;;;;;;5040484;28;20215;-84
2021/12/29 00:07:35;;;;;;;23.73;9.07;;;9.40;99.90;;;;;;5058294;28;20194;-87
2021/12/29 00:10:03;;;;;;;27.00;11.17;;;9.40;99.90;;;;;;5068044;28;20213;-87
2021/12/29 00:12:34;;;;;;;27.13;10.57;;;9.40;99.90;;;;;;5077528;28;20209;-91
2021/12/29 00:15:04;;;;;;;25.77;9.63;;;9.40;99.90;;;;;;5078085;28;20201;-90
2021/12/29 00:17:31;;;;;;;27.30;9.47;;;9.40;99.90;;;;;;5077422;28;20468;-87
2021/12/29 00:19:58;;;;;;;32.07;10.50;;;9.40;99.90;;;;;;5056710;28;20263;-88
2021/12/29 00:22:25;;;;;;;27.53;10.27;;;9.40;99.90;;;;;;5055266;28;20349;-86
2021/12/29 00:24:52;;;;;;;31.53;11.53;;;9.40;99.90;;;;;;5055071;28;20202;-90
2021/12/29 00:27:18;;;;;;;39.63;10.23;;;9.40;99.90;;;;;;5054000;28;20194;-88
2021/12/29 00:29:45;;;;;;;27.30;11.00;;;9.40;99.90;;;;;;5034873;28;20213;-89
2021/12/29 00:32:13;;;;;;;28.80;12.17;;;9.40;99.90;;;;;;5035584;28;20206;-87
2021/12/29 00:34:40;;;;;;;27.53;10.90;;;9.40;99.90;;;;;;5034319;28;20233;-91
2021/12/29 00:37:07;;;;;;;31.47;11.97;;;9.40;99.90;;;;;;5034632;28;20207;-88
2021/12/29 00:39:34;;;;;;;26.23;12.47;;;9.40;99.90;;;;;;5034490;28;20201;-88
2021/12/29 00:42:01;;;;;;;28.27;12.80;;;9.50;99.90;;;;;;5056762;28;20236;-88
2021/12/29 00:44:30;;;;;;;31.57;13.63;;;9.50;99.90;;;;;;5053900;28;20210;-88
2021/12/29 00:46:57;;;;;;;26.13;11.27;;;9.40;99.90;;;;;;5050336;28;20195;-88
2021/12/29 00:49:30;;;;;;;26.20;10.77;;;9.40;99.90;;;;;;5034518;28;20207;-89
2021/12/29 00:51:57;;;;;;;24.90;11.20;;;9.40;99.90;;;;;;5034654;28;20191;-87
2021/12/29 00:54:25;;;;;;;25.67;11.00;;;9.40;99.90;;;;;;5034158;28;20206;-87
2021/12/29 00:56:51;;;;;;;23.20;11.33;;;9.40;99.90;;;;;;5051679;28;20201;-86
2021/12/29 00:59:19;;;;;;;36.50;10.10;;;9.40;99.90;;;;;;5056828;28;20210;-85
2021/12/29 01:01:46;;;;;;;28.17;9.30;;;9.40;99.90;;;;;;5056907;28;20226;-87
2021/12/29 01:04:13;;;;;;;23.20;8.60;;;9.40;99.90;;;;;;5054129;28;20886;-89
2021/12/29 01:06:42;;;;;;;26.90;9.00;;;9.40;99.90;;;;;;5051089;28;20213;-88
2021/12/29 01:09:09;;;;;;;27.67;9.87;;;9.40;99.90;;;;;;5046572;28;20203;-88
2021/12/29 01:11:36;;;;;;;22.47;9.93;;;9.40;99.90;;;;;;5034074;28;20232;-88
2021/12/29 01:14:04;;;;;;;22.57;11.33;;;9.40;99.90;;;;;;5033777;28;20203;-88
2021/12/29 01:16:37;;;;;;;30.90;11.20;;;9.40;99.90;;;;;;5032499;28;20290;-85
2021/12/29 01:19:08;;;;;;;30.93;10.80;;;9.40;99.90;;;;;;5033277;28;20213;-87
2021/12/29 01:21:36;;;;;;;26.10;9.83;;;9.40;99.90;;;;;;5050572;28;20320;-88
2021/12/29 01:24:06;;;;;;;30.07;11.23;;;9.40;99.90;;;;;;5053163;28;20561;-88
2021/12/29 01:26:33;;;;;;;29.37;12.43;;;9.40;99.90;;;;;;5053133;28;20586;-90
2021/12/29 01:28:59;;;;;;;29.00;12.43;;;9.40;99.90;;;;;;5053750;28;20497;-88
2021/12/29 01:31:26;;;;;;;30.10;11.53;;;9.40;99.90;;;;;;5052086;28;20198;-89
2021/12/29 01:33:53;;;;;;;27.60;11.00;;;9.40;99.90;;;;;;5071776;28;20204;-88
2021/12/29 01:36:20;;;;;;;26.13;10.90;;;9.40;99.90;;;;;;5073871;22;20241;-88
2021/12/29 01:38:47;;;;;;;21.83;9.87;;;9.40;99.90;;;;;;5033248;28;20190;-89
2021/12/29 01:41:15;;;;;;;25.97;9.60;;;9.30;99.90;;;;;;5033038;28;20222;-89
2021/12/29 01:43:42;;;;;;;22.53;9.93;;;9.40;99.90;;;;;;5033045;28;20217;-88
2021/12/29 01:46:09;;;;;;;27.30;9.87;;;9.30;99.90;;;;;;5032643;28;20587;-89
2021/12/29 01:48:36;;;;;;;26.33;10.20;;;9.40;99.90;;;;;;5031750;28;20202;-87
2021/12/29 01:51:03;;;;;;;21.83;9.23;;;9.40;99.90;;;;;;5024809;28;20294;-87
2021/12/29 01:53:32;;;;;;;14.60;7.10;;;9.30;99.90;;;;;;5013459;28;20208;-87
2021/12/29 01:56:00;;;;;;;22.63;8.47;;;9.40;99.90;;;;;;5013325;28;20207;-88
2021/12/29 01:58:30;;;;;;;20.13;8.73;;;9.40;99.90;;;;;;5029389;28;20210;-88
2021/12/29 02:01:00;;;;;;;17.83;7.80;;;9.40;99.90;;;;;;5033026;28;20222;-88
2021/12/29 02:03:27;;;;;;;24.10;9.00;;;9.40;99.90;;;;;;5032690;28;20526;-88
2021/12/29 02:05:54;;;;;;;26.40;9.53;;;9.40;99.90;;;;;;5032859;28;20198;-88
2021/12/29 02:08:23;;;;;;;20.17;7.90;;;9.40;99.90;;;;;;5033199;28;20202;-88
2021/12/29 02:10:51;;;;;;;21.83;7.60;;;9.40;99.90;;;;;;5032957;28;20575;-87
2021/12/29 02:13:19;;;;;;;17.17;7.50;;;9.40;99.90;;;;;;5028171;28;20238;-88
2021/12/29 02:15:48;;;;;;;20.07;7.80;;;9.40;99.90;;;;;;5013405;28;20231;-88
2021/12/29 02:18:16;;;;;;;22.03;8.83;;;9.40;99.90;;;;;;5025734;28;20221;-85
2021/12/29 02:20:47;;;;;;;17.60;7.37;;;9.40;99.90;;;;;;5032538;28;20285;-87
2021/12/29 02:23:19;;;;;;;20.67;5.77;;;9.40;99.90;;;;;;5013649;28;20203;-86
2021/12/29 02:25:50;;;;;;;11.53;4.87;;;9.50;99.90;;;;;;5011679;28;20373;-88
2021/12/29 02:28:19;;;;;;;16.60;6.13;;;9.50;99.90;;;;;;5013556;28;20191;-87
2021/12/29 02:30:48;;;;;;;15.83;6.13;;;9.50;99.90;;;;;;5014684;28;20207;-87
2021/12/29 02:33:16;;;;;;;15.50;5.23;;;9.50;99.90;;;;;;5012372;28;20215;-86
2021/12/29 02:35:46;;;;;;;12.40;4.83;;;9.40;99.90;;;;;;4991609;28;20203;-87
2021/12/29 02:38:22;;;;;;;14.40;4.50;;;9.40;99.90;;;;;;5007121;28;20231;-88
2021/12/29 02:40:54;;;;;;;20.73;5.70;;;9.40;99.90;;;;;;5009379;28;20250;-88
2021/12/29 02:43:22;;;;;;;15.90;4.80;;;9.30;99.90;;;;;;5011015;28;20203;-87
2021/12/29 02:45:58;;;;;;;15.00;4.93;;;9.30;99.90;;;;;;5013769;28;20211;-87
2021/12/29 02:48:29;;;;;;;16.07;4.60;;;9.40;99.90;;;;;;5012262;28;20218;-87
2021/12/29 02:50:59;;;;;;;10.57;4.27;;;9.40;99.90;;;;;;5012183;28;20215;-87
2021/12/29 02:53:27;;;;;;;13.93;4.13;;;9.50;99.90;;;;;;5024952;28;20214;-87
2021/12/29 02:55:55;;;;;;;16.40;4.33;;;9.50;99.90;;;;;;5031911;28;20209;-87
2021/12/29 02:58:23;;;;;;;16.37;5.27;;;9.40;99.90;;;;;;5031449;28;20210;-87
2021/12/29 03:00:53;;;;;;;9.10;4.37;;;9.40;99.90;;;;;;5013763;28;20242;-87
2021/12/29 03:03:22;;;;;;;17.23;5.10;;;9.40;99.90;;;;;;5011515;28;20199;-86
2021/12/29 03:05:50;;;;;;;15.60;4.87;;;9.40;99.90;;;;;;5009500;28;20218;-86
2021/12/29 03:08:19;;;;;;;17.50;5.90;;;9.50;99.90;;;;;;5014358;28;20483;-87
2021/12/29 03:10:47;;;;;;;18.03;6.73;;;9.50;99.90;;;;;;5027360;28;20213;-85
2021/12/29 03:13:15;;;;;;;18.27;6.40;;;9.50;99.90;;;;;;5026876;28;20210;-86
2021/12/29 03:15:41;;;;;;;16.37;6.40;;;9.50;99.90;;;;;;5027645;28;20206;-86
2021/12/29 03:18:08;;;;;;;18.87;7.50;;;9.50;99.90;;;;;;5027895;28;20780;-85
2021/12/29 03:20:35;;;;;;;16.13;8.27;;;9.60;99.90;;;;;;5028451;28;20218;-88
2021/12/29 03:23:02;;;;;;;26.17;9.77;;;9.50;99.90;;;;;;5029711;28;20231;-87
2021/12/29 03:25:31;;;;;;;26.63;10.80;;;9.50;99.90;;;;;;5028381;28;20215;-87
2021/12/29 03:27:59;;;;;;;20.93;8.33;;;9.50;99.90;;;;;;5027553;28;20194;-87
2021/12/29 03:30:29;;;;;;;16.70;7.23;;;9.50;99.90;;;;;;5020164;28;20214;-87
2021/12/29 03:33:03;;;;;;;18.70;5.70;;;9.50;99.90;;;;;;5008477;28;20203;-87
2021/12/29 03:35:32;;;;;;;11.97;4.57;;;9.60;99.90;;;;;;5010800;28;20195;-88
2021/12/29 03:38:00;;;;;;;15.67;4.20;;;9.70;99.90;;;;;;5029805;28;20231;-87
2021/12/29 03:40:27;;;;;;;11.67;3.40;;;9.70;99.90;;;;;;5030462;28;20285;-87
2021/12/29 03:42:56;;;;;;;12.33;3.97;;;9.70;99.90;;;;;;5031173;28;20229;-87
2021/12/29 03:45:23;;;;;;;10.03;2.70;;;9.70;99.90;;;;;;5030820;28;20210;-85
2021/12/29 03:47:50;;;;;;;13.57;3.57;;;9.70;99.90;;;;;;5031537;28;20194;-87
2021/12/29 03:50:17;;;;;;;13.70;3.40;;;9.60;99.90;;;;;;5031105;28;20208;-87
2021/12/29 03:52:44;;;;;;;11.80;2.77;;;9.70;99.90;;;;;;5030933;28;20205;-87
2021/12/29 03:55:11;;;;;;;11.20;3.00;;;9.70;99.90;;;;;;5033871;28;20203;-87
2021/12/29 03:57:38;;;;;;;18.03;3.43;;;9.70;99.90;;;;;;5025524;28;20220;-87
2021/12/29 04:00:12;;;;;;;19.40;4.37;;;9.70;99.90;;;;;;5014655;28;20227;-85
2021/12/29 04:02:39;;;;;;;12.23;3.93;;;9.70;99.90;;;;;;5014939;28;20222;-85
2021/12/29 04:05:08;;;;;;;19.10;4.17;;;9.70;99.90;;;;;;5013869;28;20207;-88
2021/12/29 04:07:35;;;;;;;15.17;4.23;;;9.70;99.90;;;;;;5012585;28;20207;-88
2021/12/29 04:10:02;;;;;;;16.87;4.23;;;9.70;99.90;;;;;;5012697;28;20219;-86
2021/12/29 04:12:28;;;;;;;15.97;4.70;;;9.70;99.90;;;;;;5013152;28;20212;-88
2021/12/29 04:14:55;;;;;;;15.30;3.90;;;9.60;99.90;;;;;;5013815;28;20204;-88
2021/12/29 04:17:29;;;;;;;14.77;2.97;;;9.60;99.90;;;;;;5012251;28;20195;-89
2021/12/29 04:22:40;;;;;;;18.10;3.33;;;9.60;99.90;;;;;;5015121;28;20371;-89
2021/12/29 04:25:08;;;;;;;9.97;2.50;;;9.60;99.90;;;;;;5015017;28;20200;-91
2021/12/29 04:27:35;;;;;;;14.73;3.03;;;9.60;99.90;;;;;;5022313;28;20202;-90
2021/12/29 04:30:02;;;;;;;11.63;2.80;;;9.60;99.90;;;;;;5024687;28;20245;-88
2021/12/29 04:32:30;;;;;;;16.33;3.23;;;9.60;99.90;;;;;;5014521;28;20608;-89
2021/12/29 04:34:57;;;;;;;17.87;3.37;;;9.50;99.90;;;;;;5022441;28;20551;-92
2021/12/29 04:37:24;;;;;;;20.97;3.20;;;9.50;99.90;;;;;;5034278;28;20234;-89
2021/12/29 04:39:51;;;;;;;17.67;3.70;;;9.50;99.90;;;;;;5034477;28;20485;-90
2021/12/29 04:42:18;;;;;;;11.03;2.47;;;9.60;99.90;;;;;;5034791;28;20459;-90
2021/12/29 04:44:45;;;;;;;13.77;3.50;;;9.50;99.90;;;;;;5019379;28;20523;-88
2021/12/29 04:47:12;;;;;;;14.33;2.50;;;9.50;99.90;;;;;;5028547;28;20218;-89
2021/12/29 04:49:42;;;;;;;17.63;2.80;;;9.50;99.90;;;;;;5014258;28;20294;-88
2021/12/29 04:52:11;;;;;;;20.40;3.47;;;9.50;99.90;;;;;;5014899;28;20215;-87
2021/12/29 04:54:39;;;;;;;18.80;3.27;;;9.50;99.90;;;;;;5014489;28;20690;-89
2021/12/29 04:57:06;;;;;;;19.10;3.23;;;9.50;99.90;;;;;;5023450;28;20213;-90
2021/12/29 04:59:34;;;;;;;17.53;3.60;;;9.50;99.90;;;;;;5033982;28;20210;-90
2021/12/29 05:02:01;;;;;;;16.20;3.70;;;9.50;99.90;;;;;;5024321;28;20231;-87
2021/12/29 05:04:32;;;;;;;23.67;4.20;;;9.50;99.90;;;;;;5014010;28;20207;-88
2021/12/29 05:09:45;;;;;;;19.20;4.03;;;9.50;99.90;;;;;;5014752;28;20211;-87
2021/12/29 05:12:12;;;;;;;24.23;3.63;;;9.50;99.90;;;;;;5014527;28;20208;-86
2021/12/29 05:14:40;;;;;;;17.57;3.93;;;9.40;99.90;;;;;;5014104;28;20622;-87
2021/12/29 05:17:07;;;;;;;27.73;4.43;;;9.50;99.90;;;;;;5014071;28;20206;-87
2021/12/29 05:19:35;;;;;;;25.93;5.70;;;9.50;99.90;;;;;;5014344;28;20199;-88
2021/12/29 05:22:05;;;;;;;31.53;6.67;;;9.50;99.90;;;;;;5022100;28;20234;-87
2021/12/29 05:24:32;;;;;;;21.10;5.13;;;9.50;99.90;;;;;;5033452;28;20199;-87
2021/12/29 05:26:59;;;;;;;31.47;5.63;;;9.50;99.90;;;;;;5034194;28;20567;-89
2021/12/29 05:29:27;;;;;;;29.87;5.87;;;9.50;99.90;;;;;;5033560;28;20203;-86
2021/12/29 05:31:56;;;;;;;22.93;5.70;;;9.50;99.90;;;;;;5034192;28;20634;-88
2021/12/29 05:34:23;;;;;;;35.30;5.00;;;9.60;99.90;;;;;;5022386;28;20261;-88
2021/12/29 05:36:50;;;;;;;27.10;4.87;;;9.50;99.90;;;;;;5021847;28;20235;-87
2021/12/29 05:39:19;;;;;;;24.23;4.97;;;9.50;99.90;;;;;;5035805;28;20206;-89
2021/12/29 05:41:46;;;;;;;21.87;4.60;;;9.50;99.90;;;;;;5032439;28;20238;-88
2021/12/29 05:44:13;;;;;;;27.90;5.13;;;9.50;99.90;;;;;;5032341;28;20202;-88
2021/12/29 05:46:40;;;;;;;20.87;4.50;;;9.50;99.90;;;;;;5011788;28;20238;-89
2021/12/29 05:49:07;;;;;;;23.17;5.30;;;9.60;99.90;;;;;;5013297;28;20246;-87
2021/12/29 05:51:34;;;;;;;24.47;5.13;;;9.60;99.90;;;;;;5013055;28;20864;-88
2021/12/29 05:54:01;;;;;;;19.20;4.40;;;9.60;99.90;;;;;;5016100;28;20198;-87
2021/12/29 05:56:29;;;;;;;21.60;4.57;;;9.50;99.90;;;;;;5033001;28;20226;-89
2021/12/29 05:58:59;;;;;;;33.63;5.33;;;9.50;99.90;;;;;;5032610;28;20210;-88
2021/12/29 06:01:27;;;;;;;20.60;4.70;;;9.60;99.90;;;;;;5033125;28;20619;-88
2021/12/29 06:03:54;;;;;;;19.00;3.83;;;9.60;99.90;;;;;;5028172;28;20235;-88
2021/12/29 06:06:21;;;;;;;18.60;4.13;;;9.50;99.90;;;;;;5012630;28;20266;-88
2021/12/29 06:08:48;;;;;;;24.60;4.73;;;9.50;99.90;;;;;;5011343;28;20199;-89
2021/12/29 06:11:15;;;;;;;17.70;4.70;;;9.50;99.90;;;;;;5032540;28;20224;-88
2021/12/29 06:13:43;;;;;;;27.87;5.40;;;9.50;99.90;;;;;;5032061;28;20213;-88
2021/12/29 06:16:10;;;;;;;18.87;4.60;;;9.50;99.90;;;;;;5032261;28;20208;-88
2021/12/29 06:18:36;;;;;;;20.57;4.23;;;9.50;99.90;;;;;;5031860;28;20217;-89
2021/12/29 06:21:03;;;;;;;17.93;4.30;;;9.50;99.90;;;;;;5017970;28;20199;-88
2021/12/29 06:23:30;;;;;;;19.53;4.03;;;9.50;99.90;;;;;;5012619;28;20237;-87
2021/12/29 06:25:57;;;;;;;22.23;4.30;;;9.50;99.90;;;;;;5013372;28;20278;-88
2021/12/29 06:28:26;;;;;;;21.10;4.80;;;9.50;99.90;;;;;;5015013;28;20198;-88
2021/12/29 06:30:54;;;;;;;15.90;4.47;;;9.50;99.90;;;;;;5032522;28;20244;-88
2021/12/29 06:33:21;;;;;;;21.40;4.77;;;9.50;99.90;;;;;;5031579;28;20191;-86
2021/12/29 06:35:48;;;;;;;14.90;4.47;;;9.50;99.90;;;;;;5032211;28;20210;-85
2021/12/29 06:38:14;;;;;;;20.07;4.07;;;9.50;99.90;;;;;;5023985;28;20235;-86
2021/12/29 06:40:41;;;;;;;17.30;4.23;;;9.50;99.90;;;;;;5012240;28;20214;-86
2021/12/29 06:43:08;;;;;;;18.10;5.30;;;9.50;99.90;;;;;;5012281;28;20286;-86
2021/12/29 06:45:35;;;;;;;18.90;5.00;;;9.50;99.90;;;;;;5012118;28;20195;-87
2021/12/29 06:48:04;;;;;;;16.77;5.30;;;9.50;99.90;;;;;;5012207;28;20606;-86
2021/12/29 06:50:31;;;;;;;19.63;5.00;;;9.50;99.90;;;;;;5012404;28;20199;-89
2021/12/29 06:52:57;;;;;;;21.10;4.50;;;9.50;99.90;;;;;;5011586;28;20206;-87
2021/12/29 06:55:24;;;;;;;17.97;4.17;;;9.50;99.90;;;;;;5011985;28;20207;-87
2021/12/29 06:57:51;;;;;;;23.03;4.77;;;9.50;99.90;;;;;;5012084;28;20214;-89
2021/12/29 07:00:19;;;;;;;16.67;4.40;;;9.50;99.90;;;;;;5020270;28;20230;-89
2021/12/29 07:02:46;;;;;;;14.77;3.80;;;9.50;99.90;;;;;;5031600;28;20298;-88
2021/12/29 07:05:15;;;;;;;15.30;3.43;;;9.50;99.90;;;;;;5031499;28;20195;-87
2021/12/29 07:07:43;;;;;;;13.83;3.07;;;9.40;99.90;;;;;;5029283;28;20325;-88
2021/12/29 07:10:10;;;;;;;19.30;3.50;;;9.40;99.90;;;;;;5030603;28;20198;-87
2021/12/29 07:12:37;;;;;;;8.40;3.30;;;9.40;99.90;;;;;;5030101;28;20199;-87
2021/12/29 07:15:04;;;;;;;11.87;2.57;;;9.30;99.90;;;;;;5029387;28;20210;-87
2021/12/29 07:17:31;;;;;;;12.90;2.90;;;9.30;99.90;;;;;;5025538;28;20212;-86
2021/12/29 07:19:57;;;;;;;4.57;2.03;;;9.30;99.90;;;;;;5031312;28;20203;-86
2021/12/29 07:22:25;;;;;;;8.80;2.70;;;9.40;99.90;;;;;;5031741;28;20209;-85
2021/12/29 07:24:52;;;;;;;9.93;2.23;;;9.40;99.90;;;;;;5031824;28;20232;-87
2021/12/29 07:27:19;;;;;;;7.27;1.93;;;9.40;99.90;;;;;;5023443;28;20217;-86
2021/12/29 07:29:46;;;;;;;6.17;1.93;;;9.40;99.90;;;;;;5016332;28;20211;-86
2021/12/29 07:32:13;;;;;;;10.20;2.30;;;9.30;99.90;;;;;;5016811;28;20202;-85
2021/12/29 07:34:40;;;;;;;7.97;2.03;;;9.30;99.90;;;;;;5016132;28;20580;-85
2021/12/29 07:37:07;;;;;;;7.53;1.93;;;9.30;99.90;;;;;;5016413;28;20250;-86
2021/12/29 07:39:36;;;;;;;5.73;1.90;;;9.20;99.90;;;;;;5016654;28;20207;-87
2021/12/29 07:42:04;;;;;;;4.47;1.90;;;9.20;99.90;;;;;;5016251;28;20199;-86
2021/12/29 07:44:31;;;;;;;3.23;1.40;;;9.20;99.90;;;;;;5016153;28;20223;-86
2021/12/29 07:46:59;;;;;;;5.63;1.93;;;9.10;99.90;;;;;;5036378;28;20579;-88
2021/12/29 07:49:26;;;;;;;6.77;2.20;;;9.20;99.90;;;;;;5024199;28;20211;-88
2021/12/29 07:51:54;;;;;;;9.43;2.27;;;9.20;99.90;;;;;;5018633;28;20537;-86
2021/12/29 07:54:22;;;;;;;6.93;2.03;;;9.20;99.90;;;;;;5018242;28;20207;-85
2021/12/29 07:56:50;;;;;;;7.87;2.17;;;9.30;99.90;;;;;;5020321;28;20226;-87
2021/12/29 07:59:18;;;;;;;11.77;2.10;;;9.30;99.90;;;;;;5021833;28;20214;-87
2021/12/29 08:01:46;;;;;;;5.07;1.50;;;9.30;99.90;;;;;;5022660;28;20509;-86
2021/12/29 08:04:15;;;;;;;6.87;1.93;;;9.30;99.90;;;;;;5022040;28;20735;-86
2021/12/29 08:06:42;;;;;;;6.33;2.03;;;9.30;99.90;;;;;;5020660;28;20203;-85
2021/12/29 08:09:09;;;;;;;4.70;1.87;;;9.30;99.90;;;;;;5016588;28;20191;-87
2021/12/29 08:11:36;;;;;;;7.63;1.73;;;9.30;99.90;;;;;;5014395;28;20570;-88
2021/12/29 08:14:05;;;;;;;7.93;2.27;;;9.30;99.90;;;;;;5032315;28;20274;-88
2021/12/29 08:16:32;;;;;;;4.83;1.40;;;9.30;99.90;;;;;;5034276;28;20691;-88
2021/12/29 08:18:59;;;;;;;7.77;2.20;;;9.20;99.90;;;;;;5022470;28;20207;-87
2021/12/29 08:21:26;;;;;;;6.33;2.37;;;9.20;99.90;;;;;;4998065;28;20222;-86
2021/12/29 08:23:52;;;;;;;5.13;2.20;;;9.20;99.90;;;;;;5014036;28;20227;-86
2021/12/29 08:26:20;;;;;;;7.63;2.87;;;9.10;99.90;;;;;;5014408;28;20512;-85
2021/12/29 08:28:47;;;;;;;6.00;2.40;;;9.10;99.90;;;;;;5014686;28;20200;-86
2021/12/29 08:31:18;;;;;;;3.70;1.80;;;9.10;99.90;;;;;;5014203;28;20195;-85
2021/12/29 08:33:45;;;;;;;9.37;3.23;;;9.10;99.90;;;;;;5014463;28;20206;-85
2021/12/29 08:36:12;;;;;;;9.17;3.33;;;9.10;99.90;;;;;;5013988;28;20294;-87
2021/12/29 08:38:39;;;;;;;5.90;2.97;;;9.10;99.90;;;;;;5013217;28;20239;-86
2021/12/29 08:41:06;;;;;;;6.93;2.73;;;9.10;99.90;;;;;;5037581;23;20243;-87
2021/12/29 08:43:33;;;;;;;9.53;2.77;;;9.10;99.90;;;;;;5034315;28;20231;-88
2021/12/29 08:46:00;;;;;;;8.13;2.40;;;9.10;99.90;;;;;;5033851;28;20539;-88
2021/12/29 08:48:28;;;;;;;8.17;2.93;;;9.10;99.90;;;;;;5030085;28;20496;-88
2021/12/29 08:50:59;;;;;;;5.07;2.60;;;9.10;99.90;;;;;;5032856;28;20210;-86
2021/12/29 08:53:26;;;;;;;7.87;3.03;;;9.10;99.90;;;;;;5021820;28;20223;-86
2021/12/29 08:55:57;;;;;;;12.37;2.90;;;9.20;99.90;;;;;;5014318;28;20283;-86
2021/12/29 08:58:25;;;;;;;7.40;2.77;;;9.20;99.90;;;;;;5026604;28;20607;-87
2021/12/29 09:00:52;;;;;;;7.60;2.30;;;9.20;99.90;;;;;;5034517;28;20704;-88
2021/12/29 09:03:19;;;;;;;7.50;3.03;;;9.20;99.90;;;;;;5033913;28;20230;-86
2021/12/29 09:05:48;;;;;;;11.47;3.10;;;9.20;99.90;;;;;;5031678;28;20202;-85
2021/12/29 09:08:15;;;;;;;8.77;3.63;;;9.20;99.90;;;;;;5032391;28;20483;-86
2021/12/29 09:10:42;;;;;;;7.93;3.37;;;9.20;99.90;;;;;;5031933;28;20212;-83
2021/12/29 09:13:09;;;;;;;9.90;3.40;;;9.20;99.90;;;;;;5029905;28;20202;-84
2021/12/29 09:15:36;;;;;;;9.00;3.90;;;9.20;99.90;;;;;;5030687;28;20520;-87
2021/12/29 09:18:03;;;;;;;11.40;3.93;;;9.30;99.90;;;;;;5031895;28;20199;-85
2021/12/29 09:20:31;;;;;;;7.80;3.70;;;9.30;99.90;;;;;;5031541;28;20197;-85
2021/12/29 09:23:04;;;;;;;10.93;3.77;;;9.30;99.90;;;;;;5032248;28;20507;-85
2021/12/29 09:25:32;;;;;;;5.97;3.17;;;9.30;99.90;;;;;;5031560;28;20738;-83
2021/12/29 09:27:59;;;;;;;5.70;3.60;;;9.30;99.90;;;;;;5031465;28;20202;-83
2021/12/29 09:30:28;;;;;;;8.30;3.70;;;9.40;99.90;;;;;;5030185;28;20213;-84
2021/12/29 09:32:55;;;;;;;10.80;3.80;;;9.40;99.90;;;;;;5031563;28;20218;-84
2021/12/29 09:35:23;;;;;;;6.87;3.30;;;9.40;99.90;;;;;;5029991;28;20630;-85
2021/12/29 09:37:51;;;;;;;9.60;3.27;;;9.40;99.90;;;;;;5031062;28;20591;-85
2021/12/29 09:40:21;;;;;;;8.67;3.17;;;9.40;99.90;;;;;;5030814;28;20242;-84
2021/12/29 09:42:48;;;;;;;7.53;3.47;;;9.40;99.90;;;;;;5030476;28;20214;-82
2021/12/29 09:45:18;;;;;;;9.87;3.23;;;9.40;99.90;;;;;;5031298;28;20229;-85
2021/12/29 09:47:45;;;;;;;9.97;3.17;;;9.40;99.90;;;;;;5030211;28;20806;-84
2021/12/29 09:50:15;;;;;;;9.80;3.60;;;9.40;99.90;;;;;;5030951;28;20217;-81
2021/12/29 09:52:43;;;;;;;10.97;3.70;;;9.40;99.90;;;;;;5029510;28;20199;-82
2021/12/29 09:55:12;;;;;;;12.90;3.57;;;9.50;99.90;;;;;;5030123;28;20210;-84
2021/12/29 09:57:45;;;;;;;11.07;3.23;;;9.40;99.90;;;;;;5029967;28;20213;-85
2021/12/29 10:00:21;;;;;;;13.43;3.93;;;9.40;99.90;;;;;;5029182;28;20236;-83
2021/12/29 10:02:48;;;;;;;7.70;3.53;;;9.40;99.90;;;;;;5030040;28;20598;-86
2021/12/29 10:05:15;;;;;;;6.83;3.37;;;9.40;99.90;;;;;;5029395;28;20226;-82
2021/12/29 10:07:42;;;;;;;7.43;3.60;;;9.50;99.90;;;;;;5030864;28;20206;-83
2021/12/29 10:10:16;;;;;;;10.33;3.83;;;9.50;99.90;;;;;;5032026;28;20472;-84
2021/12/29 10:12:46;;;;;;;9.60;4.07;;;9.50;99.90;;;;;;5031247;28;20197;-84
2021/12/29 10:15:13;;;;;;;8.30;3.97;;;9.50;99.90;;;;;;5030766;28;20199;-84
2021/12/29 10:17:40;;;;;;;10.03;4.17;;;9.50;99.90;;;;;;5029117;28;20213;-85
2021/12/29 10:20:10;;;;;;;7.70;4.43;;;9.50;99.90;;;;;;5028435;28;20285;-85
2021/12/29 10:22:37;;;;;;;9.47;4.30;;;9.50;99.90;;;;;;5029525;28;20191;-86
2021/12/29 10:25:08;;;;;;;10.00;4.77;;;9.50;99.90;;;;;;5031426;28;20226;-85
2021/12/29 10:27:35;;;;;;;7.20;4.40;;;9.60;99.90;;;;;;5031816;28;20247;-84
2021/12/29 10:30:18;;;;;;;7.87;4.73;;;9.60;99.90;;;;;;5030795;28;20209;-83
2021/12/29 10:32:45;;;;;;;11.13;5.00;;;9.60;99.90;;;;;;5029799;28;20221;-84
2021/12/29 10:35:21;;;;;;;11.93;4.67;;;9.60;99.90;;;;;;5031291;28;20771;-86
2021/12/29 10:37:48;;;;;;;9.97;4.80;;;9.60;99.90;;;;;;5029813;28;20210;-83
2021/12/29 10:40:25;;;;;;;9.97;5.30;;;9.50;99.90;;;;;;5030672;28;20236;-83
2021/12/29 10:42:56;;;;;;;13.07;5.07;;;9.60;99.90;;;;;;5030672;28;20641;-84
2021/12/29 10:45:33;;;;;;;11.83;5.50;;;9.60;99.90;;;;;;5030066;28;20234;-84
2021/12/29 10:48:00;;;;;;;12.83;5.30;;;9.60;99.90;;;;;;5030902;28;20217;-85
2021/12/29 10:50:29;;;;;;;8.23;5.53;;;9.60;99.90;;;;;;5030400;28;20210;-83
2021/12/29 10:52:58;;;;;;;8.73;5.40;;;9.60;99.90;;;;;;5029766;28;20203;-85
2021/12/29 10:55:31;;;;;;;13.20;6.27;;;9.60;99.90;;;;;;5029828;28;20248;-86
2021/12/29 10:58:06;;;;;;;10.60;5.43;;;9.60;99.90;;;;;;5030207;28;20602;-83
2021/12/29 11:00:37;;;;;;;7.83;5.23;;;9.60;99.90;;;;;;5029865;28;20226;-86
2021/12/29 11:03:12;;;;;;;11.67;6.10;;;9.60;99.90;;;;;;5030029;28;20587;-85
2021/12/29 11:05:41;;;;;;;10.67;6.37;;;9.70;99.90;;;;;;5029666;28;20558;-82
2021/12/29 11:08:10;;;;;;;9.50;6.20;;;9.70;99.90;;;;;;5029756;28;20203;-84
2021/12/29 11:10:38;;;;;;;12.97;6.37;;;9.70;99.90;;;;;;5015203;28;20207;-85
2021/12/29 11:13:05;;;;;;;10.20;6.40;;;9.60;99.90;;;;;;5012463;28;20234;-84
2021/12/29 11:15:36;;;;;;;8.13;6.40;;;9.60;99.90;;;;;;5029978;28;20210;-85
2021/12/29 11:18:04;;;;;;;9.93;6.40;;;9.60;99.90;;;;;;5029816;28;20203;-82
2021/12/29 11:20:32;;;;;;;11.63;6.57;;;9.60;99.90;;;;;;5029436;28;20187;-85
2021/12/29 11:23:08;;;;;;;15.43;8.03;;;9.60;99.90;;;;;;5029349;28;20226;-83
2021/12/29 11:25:36;;;;;;;14.57;7.50;;;9.60;99.90;;;;;;5029027;28;20237;-82
2021/12/29 11:28:04;;;;;;;13.33;7.53;;;9.50;99.90;;;;;;5027090;28;20218;-82
2021/12/29 11:30:32;;;;;;;10.00;7.20;;;9.50;99.90;;;;;;5028127;28;20205;-84
2021/12/29 11:33:09;;;;;;;15.77;7.97;;;9.50;99.90;;;;;;5027293;28;20199;-83
2021/12/29 11:35:41;;;;;;;10.63;7.77;;;9.60;99.90;;;;;;5026522;28;20210;-83
2021/12/29 11:38:09;;;;;;;13.60;8.13;;;9.60;99.90;;;;;;5027565;28;20489;-84
2021/12/29 11:40:39;;;;;;;13.93;8.17;;;9.60;99.90;;;;;;5029579;28;20702;-86
2021/12/29 11:43:08;;;;;;;17.57;7.87;;;9.50;99.90;;;;;;5028978;28;20205;-85
2021/12/29 11:45:36;;;;;;;15.83;7.47;;;9.50;99.90;;;;;;5027889;28;20233;-82
2021/12/29 11:48:04;;;;;;;11.43;7.97;;;9.50;99.90;;;;;;5027630;28;20294;-82
2021/12/29 11:50:36;;;;;;;11.37;7.00;;;9.50;99.90;;;;;;5026412;28;20202;-83
2021/12/29 11:53:27;;;;;;;10.73;6.33;;;9.50;99.90;;;;;;5025778;28;20210;-84
2021/12/29 11:55:58;;;;;;;8.03;5.83;;;9.50;99.90;;;;;;5026380;28;20198;-83
2021/12/29 11:58:27;;;;;;;14.37;6.90;;;9.50;99.90;;;;;;5026725;28;20611;-83
2021/12/29 12:01:03;;;;;;;8.73;6.57;;;9.50;99.90;;;;;;5027900;28;20253;-82
2021/12/29 12:03:40;;;;;;;7.47;5.90;;;9.50;99.90;;;;;;5027916;28;20194;-83
2021/12/29 12:06:20;;;;;;;9.47;6.07;;;9.50;99.90;;;;;;5027771;28;20202;-83
2021/12/29 12:08:47;;;;;;;13.87;6.50;;;9.50;99.90;;;;;;5027763;28;20205;-81
2021/12/29 12:11:25;;;;;;;10.27;6.40;;;9.50;99.90;;;;;;5026453;28;20210;-81
2021/12/29 12:13:52;;;;;;;11.10;7.40;;;9.50;99.90;;;;;;5026055;28;20207;-83
2021/12/29 12:16:21;;;;;;;8.57;6.90;;;9.50;99.90;;;;;;5011622;28;20203;-84
2021/12/29 12:18:50;;;;;;;9.90;6.70;;;9.50;99.90;;;;;;5029361;28;20234;-86
2021/12/29 12:21:24;;;;;;;10.53;7.23;;;9.50;99.90;;;;;;5032963;28;20230;-84
2021/12/29 12:23:52;;;;;;;10.93;6.53;;;9.50;99.90;;;;;;5031685;28;20213;-82
2021/12/29 12:26:22;;;;;;;11.53;7.20;;;9.40;99.90;;;;;;5031780;28;20195;-83
2021/12/29 12:28:52;;;;;;;12.90;7.50;;;9.40;99.90;;;;;;5031875;28;20203;-82
2021/12/29 12:31:24;;;;;;;11.47;7.97;;;9.40;99.90;;;;;;5030626;28;20593;-82
2021/12/29 12:33:52;;;;;;;15.33;7.17;;;9.50;99.90;;;;;;5032027;28;20766;-83
2021/12/29 12:36:19;;;;;;;11.73;7.13;;;9.40;99.90;;;;;;5031007;28;20206;-84
2021/12/29 12:38:48;;;;;;;17.07;8.40;;;9.40;99.90;;;;;;5032008;28;20211;-82
2021/12/29 12:41:16;;;;;;;13.53;8.73;;;9.40;99.90;;;;;;5031207;28;20245;-82
2021/12/29 12:43:53;;;;;;;13.93;7.40;;;9.40;99.90;;;;;;5029798;28;20207;-84
2021/12/29 12:46:31;;;;;;;11.57;7.93;;;9.30;99.90;;;;;;5033194;28;20233;-84
2021/12/29 12:48:58;;;;;;;14.80;8.67;;;9.30;99.90;;;;;;5032195;28;20210;-86
2021/12/29 12:51:25;;;;;;;14.73;8.37;;;9.30;99.90;;;;;;5033013;28;20554;-86
2021/12/29 12:53:54;;;;;;;11.50;8.20;;;9.30;99.90;;;;;;5033141;28;20668;-87
2021/12/29 12:56:23;;;;;;;12.47;8.30;;;9.30;99.90;;;;;;5040971;22;20242;-86
2021/12/29 12:58:55;;;;;;;15.17;8.63;;;9.30;99.90;;;;;;5033020;28;20203;-86